Time,TemperatureF,DewpointF,PressureIn,WindDirection,WindDirectionDegrees,WindSpeedMPH,WindSpeedGustMPH,Humidity,HourlyPrecipIn,Conditions,Clouds,dailyrainin,SoftwareType,DateUTC
2013-10-21 00:14:00,41.0,38.0,30.07,NNE,17,0.0,0.0,89,0.00,,,0.00,,2013-10-21 04:14:00,
2013-10-21 00:24:00,41.0,38.0,30.08,NNE,17,0.0,0.0,88,0.00,,,0.00,,2013-10-21 04:24:00,
2013-10-21 00:44:00,40.0,37.0,30.08,NNE,17,0.0,0.0,90,0.00,,,0.00,,2013-10-21 04:44:00,
2013-10-21 00:53:00,39.0,36.0,30.08,NNE,17,0.0,0.0,90,0.00,,,0.00,,2013-10-21 04:53:00,
2013-10-21 01:13:00,39.0,36.0,30.08,NNE,17,0.0,0.0,90,0.00,,,0.00,,2013-10-21 05:13:00,
2013-10-21 01:23:00,39.0,36.0,30.09,NNE,17,0.0,0.0,90,0.00,,,0.00,,2013-10-21 05:23:00,
2013-10-21 01:43:00,39.0,37.0,30.09,NNE,17,0.0,0.0,91,0.00,,,0.00,,2013-10-21 05:43:00,
2013-10-21 01:52:00,39.0,37.0,30.09,NNE,17,0.0,0.0,92,0.00,,,0.00,,2013-10-21 05:52:00,
2013-10-21 02:12:00,39.0,37.0,30.10,NNE,17,0.0,0.0,92,0.00,,,0.00,,2013-10-21 06:12:00,
2013-10-21 02:22:00,39.0,37.0,30.10,NNE,17,0.0,1.0,93,0.00,,,0.00,,2013-10-21 06:22:00,
2013-10-21 02:42:00,38.0,36.0,30.10,NNE,17,0.0,0.0,92,0.00,,,0.00,,2013-10-21 06:42:00,
2013-10-21 02:52:00,38.0,36.0,30.11,NNE,17,0.0,0.0,94,0.00,,,0.00,,2013-10-21 06:52:00,
2013-10-21 03:12:00,38.0,36.0,30.11,NNE,17,0.0,0.0,93,0.00,,,0.00,,2013-10-21 07:12:00,
2013-10-21 03:22:00,38.0,36.0,30.11,NNE,17,0.0,1.0,93,0.00,,,0.00,,2013-10-21 07:22:00,
2013-10-21 03:43:00,37.0,35.0,30.11,NNE,17,0.0,0.0,94,0.00,,,0.00,,2013-10-21 07:43:00,
2013-10-21 03:52:00,38.0,37.0,30.11,NNE,17,0.0,0.0,95,0.00,,,0.00,,2013-10-21 07:52:00,
2013-10-21 04:12:00,38.0,36.0,30.11,NNE,17,0.0,1.0,94,0.00,,,0.00,,2013-10-21 08:12:00,
2013-10-21 04:22:00,37.0,36.0,30.12,NNE,17,0.0,1.0,95,0.00,,,0.00,,2013-10-21 08:22:00,
2013-10-21 04:42:00,37.0,35.0,30.12,NNE,17,0.0,1.0,94,0.00,,,0.00,,2013-10-21 08:42:00,
2013-10-21 04:52:00,37.0,35.0,30.12,NNE,19,0.0,0.0,94,0.00,,,0.00,,2013-10-21 08:52:00,
2013-10-21 05:11:00,37.0,35.0,30.12,NNE,19,0.0,2.0,94,0.00,,,0.00,,2013-10-21 09:11:00,
2013-10-21 05:22:00,37.0,36.0,30.13,NNE,19,0.0,1.0,95,0.00,,,0.00,,2013-10-21 09:22:00,
2013-10-21 05:43:00,36.0,35.0,30.13,NNE,19,0.0,0.0,95,0.00,,,0.00,,2013-10-21 09:43:00,
2013-10-21 05:54:00,36.0,35.0,30.13,NNE,19,0.0,0.0,95,0.00,,,0.00,,2013-10-21 09:54:00,
2013-10-21 06:13:00,36.0,35.0,30.14,NNE,19,0.0,0.0,95,0.00,,,0.00,,2013-10-21 10:13:00,
2013-10-21 06:23:00,36.0,35.0,30.14,NNE,19,0.0,0.0,96,0.00,,,0.00,,2013-10-21 10:23:00,
2013-10-21 06:43:00,37.0,36.0,30.14,NNE,19,0.0,1.0,96,0.00,,,0.00,,2013-10-21 10:43:00,
2013-10-21 06:52:00,36.0,35.0,30.14,ENE,74,0.0,3.0,95,0.00,,,0.00,,2013-10-21 10:52:00,
2013-10-21 07:12:00,36.0,35.0,30.14,ENE,74,0.0,0.0,96,0.00,,,0.00,,2013-10-21 11:12:00,
2013-10-21 07:22:00,36.0,35.0,30.15,ENE,74,0.0,0.0,96,0.00,,,0.00,,2013-10-21 11:22:00,
2013-10-21 07:42:00,36.0,35.0,30.15,ENE,74,0.0,0.0,95,0.00,,,0.00,,2013-10-21 11:42:00,
2013-10-21 07:52:00,43.0,38.0,30.15,North,349,0.0,0.0,83,0.00,,,0.00,,2013-10-21 11:52:00,
2013-10-21 08:12:00,44.0,38.0,30.16,NNE,22,0.0,0.0,79,0.00,,,0.00,,2013-10-21 12:12:00,
2013-10-21 08:22:00,46.0,40.0,30.17,NNE,22,0.0,0.0,79,0.00,,,0.00,,2013-10-21 12:22:00,
2013-10-21 08:42:00,49.0,42.0,30.16,NNE,22,0.0,0.0,76,0.00,,,0.00,,2013-10-21 12:42:00,
2013-10-21 08:52:00,51.0,44.0,30.17,NNE,22,0.0,0.0,78,0.00,,,0.00,,2013-10-21 12:52:00,
2013-10-21 09:11:00,54.0,46.0,30.17,SSE,148,0.0,0.0,74,0.00,,,0.00,,2013-10-21 13:11:00,
2013-10-21 09:22:00,54.0,45.0,30.17,SE,146,0.0,0.0,72,0.00,,,0.00,,2013-10-21 13:22:00,
2013-10-21 09:42:00,57.0,44.0,30.17,SE,134,2.0,5.0,61,0.00,,,0.00,,2013-10-21 13:42:00,
2013-10-21 09:52:00,57.0,42.0,30.17,SE,142,2.0,5.0,57,0.00,,,0.00,,2013-10-21 13:52:00,
2013-10-21 10:12:00,58.0,42.0,30.17,SSE,162,2.0,5.0,56,0.00,,,0.00,,2013-10-21 14:12:00,
2013-10-21 10:22:00,59.0,43.0,30.17,South,191,2.0,6.0,55,0.00,,,0.00,,2013-10-21 14:22:00,
2013-10-21 10:42:00,59.0,43.0,30.17,SSE,148,2.0,5.0,55,0.00,,,0.00,,2013-10-21 14:42:00,
2013-10-21 10:52:00,59.0,43.0,30.16,East,91,2.0,5.0,56,0.00,,,0.00,,2013-10-21 14:52:00,
2013-10-21 11:12:00,59.0,45.0,30.17,ESE,106,2.0,6.0,59,0.00,,,0.00,,2013-10-21 15:12:00,
2013-10-21 11:22:00,60.0,45.0,30.17,SSE,157,1.0,4.0,57,0.00,,,0.00,,2013-10-21 15:22:00,
2013-10-21 11:43:00,62.0,45.0,30.17,SSW,196,0.0,4.0,53,0.00,,,0.00,,2013-10-21 15:43:00,
2013-10-21 11:53:00,63.0,44.0,30.16,ESE,110,0.0,4.0,50,0.00,,,0.00,,2013-10-21 15:53:00,
2013-10-21 12:13:00,61.0,47.0,30.16,East,97,3.0,6.0,60,0.00,,,0.00,,2013-10-21 16:13:00,
2013-10-21 12:23:00,61.0,46.0,30.15,ESE,106,3.0,6.0,57,0.00,,,0.00,,2013-10-21 16:23:00,
2013-10-21 12:43:00,62.0,46.0,30.15,SE,143,5.0,12.0,56,0.00,,,0.00,,2013-10-21 16:43:00,
2013-10-21 12:54:00,63.0,46.0,30.15,ESE,123,4.0,11.0,53,0.00,,,0.00,,2013-10-21 16:54:00,
2013-10-21 13:12:00,62.0,46.0,30.14,SE,126,6.0,11.0,55,0.00,,,0.00,,2013-10-21 17:12:00,
2013-10-21 13:22:00,63.0,48.0,30.14,ESE,104,6.0,11.0,58,0.00,,,0.00,,2013-10-21 17:22:00,
2013-10-21 13:43:00,63.0,47.0,30.13,SE,125,6.0,12.0,55,0.00,,,0.00,,2013-10-21 17:43:00,
2013-10-21 13:53:00,63.0,48.0,30.12,ESE,111,7.0,13.0,57,0.00,,,0.00,,2013-10-21 17:53:00,
2013-10-21 14:12:00,63.0,47.0,30.12,ESE,117,8.0,15.0,56,0.00,,,0.00,,2013-10-21 18:12:00,
2013-10-21 14:22:00,64.0,47.0,30.12,South,174,5.0,17.0,55,0.00,,,0.00,,2013-10-21 18:22:00,
2013-10-21 14:42:00,63.0,46.0,30.12,SE,138,6.0,14.0,53,0.00,,,0.00,,2013-10-21 18:42:00,
2013-10-21 14:52:00,63.0,46.0,30.11,SE,146,5.0,12.0,54,0.00,,,0.00,,2013-10-21 18:52:00,
2013-10-21 15:11:00,63.0,46.0,30.11,SSE,155,6.0,13.0,53,0.00,,,0.00,,2013-10-21 19:11:00,
2013-10-21 15:22:00,63.0,46.0,30.11,SSE,151,5.0,14.0,54,0.00,,,0.00,,2013-10-21 19:22:00,
2013-10-21 15:42:00,63.0,47.0,30.11,SSE,161,6.0,12.0,56,0.00,,,0.00,,2013-10-21 19:42:00,
2013-10-21 15:52:00,63.0,47.0,30.11,SSE,163,6.0,14.0,56,0.00,,,0.00,,2013-10-21 19:52:00,
2013-10-21 16:02:00,62.0,48.0,30.10,SSE,150,5.0,12.0,60,0.00,,,0.00,,2013-10-21 20:02:00,
2013-10-21 16:11:00,63.0,48.0,30.10,South,182,6.0,14.0,58,0.00,,,0.00,,2013-10-21 20:11:00,
2013-10-21 16:22:00,62.0,48.0,30.10,SSE,150,5.0,12.0,60,0.00,,,0.00,,2013-10-21 20:22:00,
2013-10-21 16:32:00,62.0,48.0,30.10,SSE,150,5.0,12.0,60,0.00,,,0.00,,2013-10-21 20:32:00,
2013-10-21 16:43:00,62.0,48.0,30.10,SSE,150,5.0,12.0,60,0.00,,,0.00,,2013-10-21 20:43:00,
2013-10-21 16:53:00,62.0,48.0,30.10,SSE,150,5.0,12.0,60,0.00,,,0.00,,2013-10-21 20:53:00,